Time;durP1;ratioP1;P1;durP2;ratioP2;P2;SDS_P1;SDS_P2;PMS_P1;PMS_P2;Temp;Humidity;BMP_temperature;BMP_pressure;BME280_temperature;BME280_humidity;BME280_pressure;Samples;Min_cycle;Max_cycle;Signal;HPM_P1;HPM_P2
2023/10/13 00:01:35;;;;;;;631.50;554.35;;;27.70;99.90;;;;;;5064555;28;20063;-68
2023/10/13 00:04:05;;;;;;;600.33;529.50;;;27.80;99.90;;;;;;5063657;28;20124;-65
2023/10/13 00:06:31;;;;;;;616.40;539.20;;;27.80;99.90;;;;;;5064936;28;20024;-66
2023/10/13 00:08:58;;;;;;;603.17;531.80;;;27.80;99.90;;;;;;5069831;28;20078;-66
2023/10/13 00:11:26;;;;;;;563.47;474.73;;;27.90;99.90;;;;;;5067820;28;20055;-68
2023/10/13 00:13:54;;;;;;;541.38;461.10;;;28.00;99.90;;;;;;5065285;28;20116;-67
2023/10/13 00:16:21;;;;;;;525.70;454.98;;;28.00;99.90;;;;;;5065332;28;20508;-66
2023/10/13 00:18:54;;;;;;;484.90;406.88;;;28.00;99.90;;;;;;5062388;28;20028;-69
2023/10/13 00:21:32;;;;;;;452.20;382.45;;;28.10;99.90;;;;;;5057673;28;20109;-68
2023/10/13 00:24:05;;;;;;;423.67;358.02;;;28.10;99.90;;;;;;5057418;28;20020;-69
2023/10/13 00:26:36;;;;;;;430.15;371.25;;;28.20;99.90;;;;;;5061829;28;20027;-68
2023/10/13 00:31:42;;;;;;;431.77;373.90;;;28.30;99.90;;;;;;5059147;28;20029;-68
2023/10/13 00:34:12;;;;;;;409.23;346.42;;;28.40;99.90;;;;;;5069495;28;20025;-70
2023/10/13 00:37:10;;;;;;;403.15;354.55;;;28.40;99.90;;;;;;5061232;28;20024;-69
2023/10/13 00:39:28;;;;;;;404.92;348.13;;;28.50;99.90;;;;;;5068689;28;20021;-70
2023/10/13 00:41:58;;;;;;;411.38;349.25;;;28.50;99.90;;;;;;5067331;28;20476;-70
2023/10/13 00:47:47;;;;;;;555.33;495.35;;;28.60;99.90;;;;;;5069334;28;20380;-68
2023/10/13 00:49:59;;;;;;;577.95;516.97;;;28.70;99.90;;;;;;5066857;28;20032;-65
2023/10/13 00:52:26;;;;;;;561.25;502.27;;;28.80;99.90;;;;;;5068273;28;20049;-66
2023/10/13 00:54:53;;;;;;;551.15;492.80;;;28.90;99.90;;;;;;5058982;28;20545;-65
2023/10/13 00:57:30;;;;;;;569.28;509.48;;;29.00;99.90;;;;;;5058690;28;20429;-65
2023/10/13 00:59:57;;;;;;;585.10;522.97;;;29.00;99.90;;;;;;5058535;28;20084;-64
2023/10/13 01:05:09;;;;;;;544.78;487.42;;;29.10;99.90;;;;;;5060061;28;20033;-62
2023/10/13 01:07:37;;;;;;;516.17;461.05;;;29.20;99.90;;;;;;5063512;28;20020;-63
2023/10/13 01:10:05;;;;;;;560.95;501.35;;;29.20;99.90;;;;;;5062021;28;20029;-67
2023/10/13 01:12:31;;;;;;;544.20;486.60;;;29.20;99.90;;;;;;5054017;28;20486;-66
2023/10/13 01:14:59;;;;;;;534.70;478.30;;;29.30;99.90;;;;;;5056958;28;20040;-65
2023/10/13 01:17:31;;;;;;;495.67;443.23;;;29.30;99.90;;;;;;5064033;28;20021;-63
2023/10/13 01:19:58;;;;;;;;;;;29.30;99.90;;;;;;5064838;28;20473;-65
2023/10/13 01:22:28;;;;;;;515.83;461.88;;;29.40;99.90;;;;;;5063050;28;19905;-65
2023/10/13 01:25:04;;;;;;;494.58;442.83;;;29.50;99.90;;;;;;5062793;28;20382;-64
2023/10/13 01:27:31;;;;;;;575.85;518.17;;;29.50;99.90;;;;;;5063964;28;20021;-64
2023/10/13 01:30:05;;;;;;;493.35;441.30;;;29.60;99.90;;;;;;5062203;28;20037;-64
2023/10/13 01:32:32;;;;;;;498.05;446.20;;;29.60;99.90;;;;;;5070861;28;20114;-66
2023/10/13 01:35:05;;;;;;;495.25;443.38;;;29.60;99.90;;;;;;5073573;28;20060;-66
2023/10/13 01:37:32;;;;;;;500.63;448.15;;;29.70;99.90;;;;;;5073322;28;20028;-66
2023/10/13 01:39:58;;;;;;;490.52;439.00;;;29.70;99.90;;;;;;5053942;28;20100;-66
2023/10/13 01:42:25;;;;;;;466.67;417.27;;;29.70;99.90;;;;;;5057945;28;20013;-66
2023/10/13 01:44:51;;;;;;;463.48;415.52;;;29.90;99.90;;;;;;5069850;28;20093;-66
2023/10/13 01:47:18;;;;;;;479.52;430.30;;;29.90;99.90;;;;;;5073413;28;20473;-67
2023/10/13 01:49:47;;;;;;;470.95;422.02;;;29.90;99.90;;;;;;5060188;28;20032;-66
2023/10/13 01:52:15;;;;;;;459.02;411.02;;;30.00;99.90;;;;;;5053590;28;20021;-66
2023/10/13 01:54:45;;;;;;;454.92;407.70;;;30.10;99.90;;;;;;5066703;28;20028;-67
2023/10/13 01:57:14;;;;;;;469.73;421.15;;;30.20;99.90;;;;;;5073296;28;20028;-66
2023/10/13 01:59:43;;;;;;;446.02;400.17;;;30.20;99.90;;;;;;5073171;28;20040;-65
2023/10/13 02:02:14;;;;;;;457.95;410.70;;;30.20;99.90;;;;;;5072918;28;20074;-65
2023/10/13 02:04:48;;;;;;;450.23;403.27;;;30.30;99.90;;;;;;5062010;28;20024;-66
2023/10/13 02:07:16;;;;;;;431.90;387.10;;;30.30;99.90;;;;;;5062152;28;20028;-66
2023/10/13 02:09:44;;;;;;;453.20;406.27;;;30.30;99.90;;;;;;5061457;28;20029;-66
2023/10/13 02:12:10;;;;;;;431.13;385.92;;;30.40;99.90;;;;;;5061651;28;20505;-66
2023/10/13 02:14:40;;;;;;;462.52;414.85;;;30.40;99.90;;;;;;5062389;28;20025;-66
2023/10/13 02:17:21;;;;;;;460.73;413.27;;;30.50;99.90;;;;;;5055668;28;20108;-65
2023/10/13 02:19:47;;;;;;;453.77;406.30;;;30.50;99.90;;;;;;5053677;28;20533;-64
2023/10/13 02:22:27;;;;;;;465.25;416.90;;;30.40;99.90;;;;;;5068777;28;20021;-65
2023/10/13 02:24:53;;;;;;;468.20;419.27;;;30.50;99.90;;;;;;5068131;28;20017;-66
2023/10/13 02:27:23;;;;;;;467.73;419.48;;;30.50;99.90;;;;;;5067188;28;20095;-67
2023/10/13 02:29:58;;;;;;;466.20;418.55;;;30.60;99.90;;;;;;5065297;28;20028;-66
2023/10/13 02:32:29;;;;;;;460.30;412.40;;;30.70;99.90;;;;;;5060173;28;20024;-65
2023/10/13 02:35:05;;;;;;;438.58;392.80;;;30.70;99.90;;;;;;5069633;28;20070;-65
2023/10/13 02:37:32;;;;;;;437.50;392.60;;;30.80;99.90;;;;;;5067027;28;20029;-68
2023/10/13 02:40:00;;;;;;;465.48;417.60;;;30.80;99.90;;;;;;5054167;28;20024;-67
2023/10/13 02:42:26;;;;;;;551.22;492.80;;;30.80;99.90;;;;;;5058268;28;20015;-65
2023/10/13 02:44:57;;;;;;;517.45;463.80;;;30.90;99.90;;;;;;5061350;28;20017;-68
2023/10/13 02:47:24;;;;;;;479.88;430.88;;;31.00;99.90;;;;;;5062875;28;20423;-68
2023/10/13 02:49:51;;;;;;;470.25;421.25;;;31.10;99.90;;;;;;5059615;28;20029;-66
2023/10/13 02:52:17;;;;;;;500.02;449.13;;;31.20;99.90;;;;;;5064050;28;20035;-67
2023/10/13 02:54:53;;;;;;;443.00;397.00;;;31.30;99.90;;;;;;5061712;28;20029;-67
2023/10/13 02:57:19;;;;;;;486.77;437.38;;;31.30;99.90;;;;;;5063887;28;20103;-67
2023/10/13 02:59:46;;;;;;;501.40;449.80;;;31.40;99.90;;;;;;5067124;28;20451;-67
2023/10/13 03:02:17;;;;;;;512.05;460.08;;;31.50;99.90;;;;;;5068068;28;20009;-67
2023/10/13 03:07:44;;;;;;;482.90;434.10;;;31.40;99.90;;;;;;5067153;28;20033;-68
2023/10/13 03:10:11;;;;;;;479.67;429.40;;;31.40;99.90;;;;;;5064573;28;20055;-69
2023/10/13 03:12:38;;;;;;;504.38;451.85;;;31.50;99.90;;;;;;5067280;28;20036;-68
2023/10/13 03:15:17;;;;;;;497.05;445.73;;;31.50;99.90;;;;;;5077206;22;20071;-67
2023/10/13 03:17:45;;;;;;;499.30;447.98;;;31.60;99.90;;;;;;5046002;28;20383;-65
2023/10/13 03:20:24;;;;;;;504.48;451.30;;;31.60;99.90;;;;;;5045780;28;20029;-70
2023/10/13 03:22:53;;;;;;;531.85;476.00;;;31.70;99.90;;;;;;5045394;28;20335;-71
2023/10/13 03:25:29;;;;;;;503.65;450.30;;;31.70;99.90;;;;;;5045853;28;20013;-69
2023/10/13 03:30:30;;;;;;;512.72;458.13;;;31.70;99.90;;;;;;5046319;28;20025;-69
2023/10/13 03:32:56;;;;;;;519.30;464.50;;;31.80;99.90;;;;;;5046560;28;20056;-67
2023/10/13 03:35:24;;;;;;;514.63;460.70;;;31.80;99.90;;;;;;5041287;28;20029;-69
2023/10/13 03:37:53;;;;;;;527.95;472.65;;;31.80;99.90;;;;;;5036442;28;20033;-68
2023/10/13 03:43:09;;;;;;;538.22;482.30;;;32.00;99.90;;;;;;5036347;28;20022;-68
2023/10/13 03:45:42;;;;;;;528.28;472.67;;;32.00;99.90;;;;;;5049903;28;20029;-71
2023/10/13 03:48:27;;;;;;;542.03;485.52;;;32.10;99.90;;;;;;5056150;28;20025;-69
2023/10/13 03:51:10;;;;;;;523.63;468.92;;;32.10;99.90;;;;;;5056050;28;20031;-69
2023/10/13 03:54:07;;;;;;;542.22;486.15;;;32.30;99.90;;;;;;5055982;28;20037;-68
2023/10/13 03:56:28;;;;;;;524.15;469.63;;;32.30;99.90;;;;;;5053780;28;20036;-68
2023/10/13 03:59:04;;;;;;;552.13;494.90;;;32.40;99.90;;;;;;5055876;28;20029;-68
2023/10/13 04:01:31;;;;;;;550.40;492.73;;;32.60;99.90;;;;;;5055539;28;20029;-66
2023/10/13 04:04:11;;;;;;;540.25;483.67;;;32.80;99.90;;;;;;5055903;28;20059;-66
2023/10/13 04:17:23;;;;;;;528.50;473.38;;;32.70;99.90;;;;;;5055239;28;20517;-71
2023/10/13 04:38:59;;;;;;;606.25;544.40;;;33.10;99.90;;;;;;5053819;28;20121;-70
2023/10/13 04:41:36;;;;;;;563.88;504.85;;;33.20;99.90;;;;;;5053649;28;20569;-69
2023/10/13 04:44:23;;;;;;;567.22;508.70;;;33.10;99.90;;;;;;5053804;28;20029;-70
2023/10/13 05:03:29;;;;;;;527.08;472.48;;;33.40;99.90;;;;;;5013716;28;20077;-70
2023/10/13 05:46:35;;;;;;;589.92;529.45;;;34.30;95.30;;;;;;5033983;28;20034;-68
2023/10/13 06:30:13;;;;;;;582.08;523.20;;;34.70;92.80;;;;;;4991891;28;20038;-69
2023/10/13 06:32:40;;;;;;;556.53;498.40;;;34.80;92.90;;;;;;5012966;28;20046;-70
2023/10/13 06:35:07;;;;;;;481.92;431.38;;;34.80;93.10;;;;;;5017893;28;20022;-69
2023/10/13 06:37:34;;;;;;;483.80;433.80;;;34.80;91.20;;;;;;5018104;28;20028;-69
2023/10/13 06:45:56;;;;;;;586.90;527.38;;;34.90;91.80;;;;;;4975614;28;20061;-71
2023/10/13 06:48:25;;;;;;;553.28;497.40;;;35.10;91.00;;;;;;4975746;28;20031;-70
2023/10/13 06:50:55;;;;;;;559.97;503.33;;;35.10;90.60;;;;;;4975724;28;20030;-68
2023/10/13 06:53:22;;;;;;;553.33;497.10;;;35.20;90.00;;;;;;4976102;28;20440;-68
2023/10/13 06:55:52;;;;;;;558.90;501.40;;;35.20;90.00;;;;;;4976605;28;20440;-68
2023/10/13 06:58:23;;;;;;;476.40;426.48;;;35.20;90.30;;;;;;4975859;28;20035;-67
2023/10/13 07:00:54;;;;;;;489.20;438.52;;;35.20;89.10;;;;;;4975700;28;20043;-68
2023/10/13 07:03:22;;;;;;;503.50;451.58;;;35.20;87.60;;;;;;4976272;28;20041;-67
2023/10/13 07:05:48;;;;;;;501.08;449.63;;;35.20;88.70;;;;;;4976125;28;20043;-67
2023/10/13 07:08:23;;;;;;;509.40;456.80;;;35.20;85.80;;;;;;4975799;28;20019;-68
2023/10/13 07:11:17;;;;;;;612.45;551.15;;;35.20;86.80;;;;;;4975433;28;20039;-67
2023/10/13 07:13:39;;;;;;;687.00;619.53;;;35.20;87.50;;;;;;4974800;28;20444;-68
2023/10/13 07:16:12;;;;;;;656.17;591.17;;;35.20;87.20;;;;;;4991072;28;20567;-66
2023/10/13 07:21:14;;;;;;;652.95;588.53;;;35.10;84.90;;;;;;5016136;28;20121;-65
2023/10/13 07:23:43;;;;;;;654.28;589.50;;;35.10;84.70;;;;;;5016356;28;20104;-63
2023/10/13 07:26:11;;;;;;;656.70;591.70;;;35.10;82.00;;;;;;5016839;28;20037;-67
2023/10/13 07:28:43;;;;;;;650.45;585.30;;;35.10;82.70;;;;;;5027319;28;20037;-66
2023/10/13 07:31:14;;;;;;;;;;;35.10;83.60;;;;;;5044752;28;20061;-68
2023/10/13 07:33:41;;;;;;;664.03;597.40;;;35.10;84.60;;;;;;5045520;28;19911;-70
2023/10/13 07:41:42;;;;;;;596.97;536.55;;;35.20;81.10;;;;;;5011929;28;20526;-65
2023/10/13 07:44:12;;;;;;;589.13;529.13;;;35.20;82.00;;;;;;5012679;28;20034;-65
2023/10/13 07:46:39;;;;;;;616.78;553.63;;;35.30;82.10;;;;;;5013088;28;20038;-68
2023/10/13 07:49:15;;;;;;;673.00;605.92;;;35.30;82.60;;;;;;5013436;28;20025;-66
2023/10/13 07:51:56;;;;;;;627.63;563.90;;;35.30;81.70;;;;;;5011907;28;20495;-66
2023/10/13 07:54:23;;;;;;;613.40;551.50;;;35.20;80.50;;;;;;5008987;28;20034;-67
2023/10/13 07:56:50;;;;;;;625.25;561.58;;;35.20;80.80;;;;;;5007769;28;20034;-65
2023/10/13 07:59:21;;;;;;;653.28;587.72;;;35.20;81.30;;;;;;5010185;28;20553;-65
2023/10/13 08:02:11;;;;;;;648.03;582.58;;;35.20;80.70;;;;;;5010194;28;20081;-67
2023/10/13 08:04:36;;;;;;;653.67;587.83;;;35.20;81.60;;;;;;5013605;28;20101;-67
2023/10/13 08:07:13;;;;;;;634.90;569.20;;;35.30;81.40;;;;;;5007476;28;20034;-68
2023/10/13 08:09:42;;;;;;;632.47;568.83;;;35.30;80.10;;;;;;4994451;28;20114;-64
2023/10/13 08:12:11;;;;;;;655.95;589.55;;;35.30;81.20;;;;;;5009609;28;20034;-64
2023/10/13 08:14:40;;;;;;;640.67;575.42;;;35.30;81.60;;;;;;5011981;28;20124;-63
2023/10/13 08:17:10;;;;;;;608.30;544.60;;;35.40;81.50;;;;;;5012108;28;20498;-65
2023/10/13 08:19:46;;;;;;;603.33;540.97;;;35.30;80.30;;;;;;5013771;28;20041;-65
2023/10/13 08:32:54;;;;;;;555.28;496.98;;;35.10;81.10;;;;;;5010101;28;20101;-63
2023/10/13 08:35:33;;;;;;;546.13;488.60;;;35.10;79.90;;;;;;5030046;28;20025;-63
2023/10/13 08:38:04;;;;;;;524.90;469.10;;;35.10;80.40;;;;;;5044730;28;20029;-64
2023/10/13 08:40:43;;;;;;;515.03;460.35;;;35.10;80.80;;;;;;5040302;28;20064;-66
2023/10/13 08:43:13;;;;;;;531.15;475.55;;;35.00;80.10;;;;;;5041349;28;20086;-64
2023/10/13 09:06:57;;;;;;;629.55;564.70;;;35.00;84.50;;;;;;4991757;28;20038;-67
2023/10/13 09:09:34;;;;;;;645.83;578.72;;;34.90;84.10;;;;;;4992268;28;20124;-63
2023/10/13 09:14:43;;;;;;;674.90;606.42;;;34.90;83.20;;;;;;4992746;28;20034;-64
2023/10/13 09:19:55;;;;;;;635.33;570.28;;;34.80;84.30;;;;;;4992948;28;20532;-65
2023/10/13 09:22:27;;;;;;;663.58;595.17;;;34.70;85.70;;;;;;5002983;28;20037;-64
2023/10/13 09:24:59;;;;;;;662.20;593.65;;;34.70;86.50;;;;;;5012286;28;20465;-64
2023/10/13 09:27:33;;;;;;;649.22;581.00;;;34.70;85.60;;;;;;5012093;28;20038;-63
2023/10/13 09:30:18;;;;;;;651.22;583.25;;;34.70;85.20;;;;;;5011909;28;20077;-66
2023/10/13 09:32:46;;;;;;;590.35;527.78;;;34.60;85.40;;;;;;5006723;28;20030;-64
2023/10/13 09:35:18;;;;;;;537.03;479.77;;;34.60;84.70;;;;;;5006324;28;20581;-65
2023/10/13 09:37:47;;;;;;;538.92;482.08;;;34.50;85.60;;;;;;4996181;28;20054;-65
2023/10/13 09:43:07;;;;;;;516.65;461.70;;;34.40;84.70;;;;;;4996017;28;20053;-64
2023/10/13 09:45:38;;;;;;;519.08;464.23;;;34.40;84.30;;;;;;4995481;28;20483;-65
2023/10/13 09:48:21;;;;;;;503.70;449.38;;;34.40;85.50;;;;;;4995610;28;20030;-65
2023/10/13 09:50:49;;;;;;;493.33;439.40;;;34.40;86.40;;;;;;4995409;28;20038;-66
2023/10/13 09:53:18;;;;;;;479.40;427.90;;;34.40;85.70;;;;;;5002203;28;20110;-66
2023/10/13 09:55:50;;;;;;;497.92;444.65;;;34.30;85.20;;;;;;5038063;28;20520;-66
2023/10/13 09:58:19;;;;;;;511.60;456.52;;;34.30;86.70;;;;;;5043739;28;20183;-67
2023/10/13 10:01:09;;;;;;;500.67;446.83;;;34.30;87.00;;;;;;5038231;28;20044;-63
2023/10/13 10:06:38;;;;;;;491.90;438.77;;;34.10;86.00;;;;;;5040393;28;20029;-64
2023/10/13 10:09:21;;;;;;;500.90;447.40;;;34.10;88.10;;;;;;5040168;28;20072;-65
2023/10/13 10:11:49;;;;;;;499.83;446.52;;;34.10;86.10;;;;;;5041111;28;20444;-64
2023/10/13 10:14:22;;;;;;;474.30;424.02;;;34.00;85.00;;;;;;5040916;28;20052;-66
2023/10/13 10:16:59;;;;;;;468.48;419.02;;;33.90;86.10;;;;;;5035281;28;20415;-65
2023/10/13 10:19:28;;;;;;;481.80;431.00;;;33.90;86.10;;;;;;5034759;28;20022;-64
2023/10/13 10:22:21;;;;;;;449.27;401.30;;;33.90;86.80;;;;;;5039171;28;20075;-65
2023/10/13 10:24:59;;;;;;;473.23;422.83;;;33.80;86.00;;;;;;5041373;28;20025;-66
2023/10/13 10:27:29;;;;;;;443.83;395.30;;;33.80;86.30;;;;;;5040291;28;20031;-65
2023/10/13 10:29:57;;;;;;;461.05;412.13;;;33.70;86.10;;;;;;5044851;28;20047;-64
2023/10/13 10:32:48;;;;;;;466.70;416.95;;;33.80;86.90;;;;;;5040606;28;20021;-65
2023/10/13 10:35:20;;;;;;;457.15;408.50;;;33.70;86.80;;;;;;5042736;28;21032;-65
2023/10/13 10:37:46;;;;;;;476.25;425.73;;;33.70;86.50;;;;;;5033823;28;20021;-66
2023/10/13 10:43:03;;;;;;;540.25;483.60;;;33.60;87.00;;;;;;4990789;28;20031;-68
2023/10/13 10:45:45;;;;;;;593.58;532.55;;;33.60;88.10;;;;;;4990788;28;20033;-67
2023/10/13 10:48:21;;;;;;;604.47;542.80;;;33.50;86.40;;;;;;4989668;28;20073;-69
2023/10/13 10:50:58;;;;;;;587.25;526.70;;;33.40;86.60;;;;;;4989582;28;20030;-64
2023/10/13 10:53:33;;;;;;;580.47;520.38;;;33.40;87.80;;;;;;4988869;28;20131;-66
2023/10/13 10:58:59;;;;;;;594.58;533.20;;;33.30;87.80;;;;;;4904081;29;20037;-67
2023/10/13 11:01:43;;;;;;;594.13;532.08;;;33.20;88.40;;;;;;4904275;29;20060;-65
2023/10/13 11:04:24;;;;;;;589.60;527.75;;;33.10;89.60;;;;;;4903969;29;20024;-65
2023/10/13 11:06:56;;;;;;;587.92;526.38;;;33.10;88.40;;;;;;4903764;29;20513;-65
2023/10/13 11:17:54;;;;;;;604.22;540.10;;;32.90;90.10;;;;;;4910450;29;20138;-66
2023/10/13 11:20:44;;;;;;;625.30;558.60;;;32.90;89.40;;;;;;4897270;29;20176;-64
2023/10/13 11:23:13;;;;;;;604.88;539.30;;;32.80;90.20;;;;;;4911256;29;20056;-66
2023/10/13 11:25:39;;;;;;;629.60;562.03;;;32.80;90.30;;;;;;4912396;29;20040;-65
2023/10/13 11:28:19;;;;;;;649.55;580.63;;;32.80;90.60;;;;;;4911276;29;20086;-66
2023/10/13 11:33:28;;;;;;;673.70;601.97;;;32.70;90.40;;;;;;4994636;28;20022;-68
2023/10/13 11:35:55;;;;;;;666.92;595.15;;;32.60;90.80;;;;;;4993429;28;20423;-67
2023/10/13 11:38:27;;;;;;;619.78;552.42;;;32.60;91.10;;;;;;4993708;28;20065;-66
2023/10/13 11:43:26;;;;;;;676.50;603.30;;;32.60;91.30;;;;;;5049994;28;20029;-67
2023/10/13 11:48:42;;;;;;;648.90;578.70;;;32.60;91.60;;;;;;5032446;28;20029;-66
2023/10/13 11:53:51;;;;;;;646.45;578.17;;;32.50;91.90;;;;;;5036154;28;20036;-67
2023/10/13 11:56:21;;;;;;;667.75;596.33;;;32.40;91.90;;;;;;5035591;28;20036;-67
2023/10/13 11:58:48;;;;;;;640.83;571.85;;;32.30;92.00;;;;;;5042014;28;20456;-65
2023/10/13 12:06:46;;;;;;;634.20;565.70;;;32.20;91.70;;;;;;5045952;28;20021;-66
2023/10/13 12:11:53;;;;;;;614.10;548.08;;;32.20;92.20;;;;;;5044505;28;20021;-65
2023/10/13 12:14:27;;;;;;;624.08;556.80;;;32.10;92.70;;;;;;5042478;28;20022;-65
2023/10/13 12:16:55;;;;;;;581.45;518.40;;;32.10;92.80;;;;;;5044058;28;20187;-64
2023/10/13 12:19:23;;;;;;;586.55;523.95;;;32.10;93.60;;;;;;5045245;28;20103;-63
2023/10/13 12:21:54;;;;;;;603.45;539.20;;;32.10;92.90;;;;;;5045678;28;20061;-64
2023/10/13 12:27:18;;;;;;;617.43;551.40;;;32.00;92.80;;;;;;5042632;28;20040;-71
2023/10/13 12:29:49;;;;;;;604.75;540.78;;;31.90;94.00;;;;;;5043312;28;20096;-64
2023/10/13 12:32:22;;;;;;;619.08;552.60;;;32.00;93.80;;;;;;5043571;28;20021;-65
2023/10/13 12:35:16;;;;;;;569.63;508.25;;;31.90;93.90;;;;;;5044225;28;20112;-65
2023/10/13 12:53:49;;;;;;;604.20;538.75;;;31.70;95.30;;;;;;4993514;28;20189;-68
2023/10/13 12:56:17;;;;;;;572.38;509.02;;;31.70;95.50;;;;;;4993379;28;20045;-68
2023/10/13 12:58:51;;;;;;;588.20;525.78;;;31.60;95.30;;;;;;4992906;28;20034;-67
2023/10/13 13:01:21;;;;;;;580.40;517.28;;;31.60;95.70;;;;;;4990317;28;20546;-67
2023/10/13 13:03:49;;;;;;;581.25;519.30;;;31.60;95.40;;;;;;4991882;28;20360;-68
2023/10/13 13:06:40;;;;;;;555.65;496.20;;;31.60;96.10;;;;;;4991263;28;20030;-68
2023/10/13 13:09:09;;;;;;;561.55;502.15;;;31.60;96.00;;;;;;4991221;28;20499;-66
2023/10/13 13:11:40;;;;;;;560.95;501.25;;;31.60;96.10;;;;;;4990255;28;20491;-67
2023/10/13 13:14:08;;;;;;;576.70;514.88;;;31.60;96.40;;;;;;4990917;28;20102;-67
2023/10/13 13:16:38;;;;;;;582.05;520.38;;;31.50;96.40;;;;;;4992947;28;20046;-67
2023/10/13 13:19:14;;;;;;;586.75;525.00;;;31.50;96.80;;;;;;4993346;28;20462;-68
2023/10/13 13:21:41;;;;;;;568.15;507.85;;;31.50;96.80;;;;;;4990295;28;20547;-67
2023/10/13 13:24:10;;;;;;;566.75;506.35;;;31.50;97.00;;;;;;4991643;28;21364;-69
2023/10/13 13:26:41;;;;;;;593.83;530.88;;;31.40;97.10;;;;;;4992729;28;20053;-64
2023/10/13 13:29:10;;;;;;;583.78;521.33;;;31.30;96.80;;;;;;4992934;28;20042;-71
2023/10/13 13:31:41;;;;;;;587.97;524.95;;;31.30;97.10;;;;;;4991232;28;20206;-65
2023/10/13 13:34:09;;;;;;;593.75;530.63;;;31.30;97.70;;;;;;4992666;28;20026;-64
2023/10/13 13:36:36;;;;;;;615.72;549.67;;;31.20;97.30;;;;;;4999308;28;20121;-64
2023/10/13 13:39:04;;;;;;;617.30;550.38;;;31.20;97.30;;;;;;5023369;28;20025;-67
2023/10/13 13:41:32;;;;;;;624.40;556.83;;;31.20;97.50;;;;;;5018973;28;20030;-68
2023/10/13 13:44:13;;;;;;;614.22;547.63;;;31.10;97.50;;;;;;5014404;28;20083;-66
2023/10/13 13:46:41;;;;;;;612.60;546.35;;;31.10;98.10;;;;;;5023139;28;20030;-67
2023/10/13 13:49:17;;;;;;;1187.90;999.90;;;31.10;98.40;;;;;;5018218;28;20037;-68
2023/10/13 13:51:51;;;;;;;1119.28;997.45;;;31.10;98.30;;;;;;5019524;28;20407;-68
2023/10/13 13:54:19;;;;;;;1299.70;999.90;;;31.20;98.30;;;;;;5018915;28;20041;-68
2023/10/13 13:56:47;;;;;;;1414.50;999.90;;;31.10;98.50;;;;;;5031193;28;20036;-68
2023/10/13 13:59:16;;;;;;;1594.55;999.90;;;31.10;99.00;;;;;;5027483;28;20087;-68
2023/10/13 14:01:44;;;;;;;1420.93;999.90;;;31.10;98.50;;;;;;5030302;28;20041;-67
2023/10/13 14:04:14;;;;;;;1635.90;999.90;;;31.00;98.90;;;;;;5031035;28;20290;-67
2023/10/13 14:06:40;;;;;;;1541.70;999.90;;;31.00;99.20;;;;;;5013778;28;20048;-66
2023/10/13 14:09:16;;;;;;;1546.93;999.90;;;31.00;99.60;;;;;;5013824;28;20064;-66
2023/10/13 14:14:33;;;;;;;1668.72;999.90;;;30.90;99.90;;;;;;5027529;28;20030;-66
2023/10/13 14:17:09;;;;;;;1686.55;999.90;;;30.80;99.90;;;;;;5033051;28;20545;-66
2023/10/13 14:19:40;;;;;;;1682.95;999.90;;;30.80;99.90;;;;;;5033400;28;20039;-67
2023/10/13 14:22:06;;;;;;;1675.00;999.90;;;30.80;99.90;;;;;;5033252;28;20037;-68
2023/10/13 14:24:43;;;;;;;1692.60;999.90;;;30.70;99.90;;;;;;5033121;28;20470;-67
2023/10/13 14:27:15;;;;;;;1661.38;999.90;;;30.70;99.90;;;;;;5033507;28;20025;-69
2023/10/13 14:29:43;;;;;;;1660.07;999.90;;;30.60;99.90;;;;;;5033558;28;20025;-67
2023/10/13 14:32:13;;;;;;;1678.45;999.90;;;30.70;99.90;;;;;;5033542;28;20017;-67
2023/10/13 14:34:42;;;;;;;1593.40;999.90;;;30.60;99.90;;;;;;5033333;28;20053;-67
2023/10/13 14:37:20;;;;;;;1517.00;999.90;;;30.60;99.90;;;;;;5033283;28;20489;-66
2023/10/13 14:39:47;;;;;;;1514.35;999.90;;;30.50;99.90;;;;;;5033250;28;20030;-69
2023/10/13 14:42:16;;;;;;;1418.65;999.90;;;30.50;99.90;;;;;;5033227;28;20576;-67
2023/10/13 14:44:43;;;;;;;1368.93;999.90;;;30.50;99.90;;;;;;5033091;28;20395;-68
2023/10/13 14:47:11;;;;;;;1370.40;999.90;;;30.50;99.90;;;;;;5033298;28;20021;-68
2023/10/13 14:49:59;;;;;;;1390.30;999.90;;;30.50;99.90;;;;;;5033845;28;20018;-67
2023/10/13 14:52:26;;;;;;;1388.07;999.90;;;30.50;99.90;;;;;;4972605;28;20045;-66
2023/10/13 14:55:07;;;;;;;1379.60;999.90;;;30.40;99.90;;;;;;4975173;28;20039;-67
2023/10/13 14:57:37;;;;;;;1378.20;999.90;;;30.30;99.90;;;;;;4976346;28;20053;-68
2023/10/13 15:00:13;;;;;;;1374.18;999.90;;;30.30;99.90;;;;;;4976207;28;20444;-68
2023/10/13 15:02:42;;;;;;;1366.55;999.90;;;30.30;99.90;;;;;;4975567;28;20460;-67
2023/10/13 15:05:16;;;;;;;1385.32;999.90;;;30.30;99.90;;;;;;4975093;28;20019;-65
2023/10/13 15:07:45;;;;;;;1379.35;999.90;;;30.30;99.90;;;;;;4975795;28;20083;-68
2023/10/13 15:10:15;;;;;;;1389.50;999.90;;;30.30;99.90;;;;;;4975891;28;20034;-66
2023/10/13 15:12:44;;;;;;;1368.63;999.90;;;30.30;99.90;;;;;;4975565;28;20054;-65
2023/10/13 15:15:15;;;;;;;1395.38;999.90;;;30.30;99.90;;;;;;4975222;28;20407;-65
2023/10/13 15:17:43;;;;;;;1392.82;999.90;;;30.20;99.90;;;;;;4975416;28;20132;-67
2023/10/13 15:20:15;;;;;;;1391.30;999.90;;;30.20;99.90;;;;;;4975330;28;20023;-66
2023/10/13 15:22:47;;;;;;;1393.13;999.90;;;30.20;99.90;;;;;;4975311;28;20568;-67
2023/10/13 15:27:55;;;;;;;1380.47;999.90;;;30.20;99.90;;;;;;4975180;28;20027;-66
2023/10/13 15:30:30;;;;;;;1387.53;999.90;;;30.10;99.90;;;;;;5036419;28;20061;-67
2023/10/13 15:32:57;;;;;;;1381.55;999.90;;;30.10;99.90;;;;;;5047665;28;20017;-67
2023/10/13 15:35:28;;;;;;;1386.60;999.90;;;30.10;99.90;;;;;;5056370;28;20064;-67
2023/10/13 15:37:55;;;;;;;1366.18;999.90;;;30.10;99.90;;;;;;5049672;28;20586;-65
2023/10/13 15:40:23;;;;;;;1362.03;999.90;;;30.00;99.90;;;;;;5041089;28;20393;-66
2023/10/13 15:42:50;;;;;;;1363.95;999.90;;;30.10;99.90;;;;;;5036331;28;20023;-64
2023/10/13 15:45:16;;;;;;;1369.43;999.90;;;30.00;99.90;;;;;;5062065;22;21775;-66
2023/10/13 15:47:46;;;;;;;1364.63;999.90;;;30.00;99.90;;;;;;5055531;28;20049;-66
2023/10/13 15:50:18;;;;;;;1372.28;999.90;;;30.00;99.90;;;;;;5053193;28;20474;-66
2023/10/13 15:52:46;;;;;;;1340.68;999.90;;;30.00;99.90;;;;;;5054688;28;20050;-67
2023/10/13 15:55:14;;;;;;;1348.75;999.90;;;30.00;99.90;;;;;;5055114;28;20048;-67
2023/10/13 15:57:41;;;;;;;1360.60;999.90;;;30.00;99.90;;;;;;5055822;28;20112;-67
2023/10/13 16:02:57;;;;;;;1348.70;999.90;;;29.90;99.90;;;;;;5034827;28;20025;-68
2023/10/13 16:05:29;;;;;;;1324.78;999.90;;;29.80;99.90;;;;;;5034835;28;20490;-69
2023/10/13 16:07:55;;;;;;;1347.20;999.90;;;29.90;99.90;;;;;;5034227;28;20033;-66
2023/10/13 16:10:23;;;;;;;1364.20;999.90;;;29.80;99.90;;;;;;5036428;28;20022;-70
2023/10/13 16:12:50;;;;;;;1375.35;999.90;;;29.80;99.90;;;;;;5036029;28;20026;-74
2023/10/13 16:15:18;;;;;;;1368.35;999.90;;;29.80;99.90;;;;;;5035893;28;20029;-75
2023/10/13 16:17:45;;;;;;;1354.30;999.90;;;29.80;99.90;;;;;;5036023;28;20063;-75
2023/10/13 16:20:20;;;;;;;1357.35;999.90;;;29.80;99.90;;;;;;5032946;28;20539;-71
2023/10/13 16:22:48;;;;;;;1367.47;999.90;;;29.80;99.90;;;;;;5035767;28;20108;-73
2023/10/13 16:25:16;;;;;;;1355.68;999.90;;;29.80;99.90;;;;;;5035835;28;20022;-73
2023/10/13 16:27:43;;;;;;;1365.82;999.90;;;29.70;99.90;;;;;;5035751;28;20018;-73
2023/10/13 16:30:15;;;;;;;1357.80;999.90;;;29.70;99.90;;;;;;5033096;28;20024;-73
2023/10/13 16:32:46;;;;;;;1384.53;999.90;;;29.70;99.90;;;;;;5035746;28;20083;-73
2023/10/13 16:35:16;;;;;;;1372.57;999.90;;;29.70;99.90;;;;;;5033458;28;20025;-73
2023/10/13 16:37:46;;;;;;;1375.75;999.90;;;29.70;99.90;;;;;;5035889;28;20037;-69
2023/10/13 16:40:19;;;;;;;1424.05;999.90;;;29.70;99.90;;;;;;5032939;28;20067;-69
2023/10/13 16:42:52;;;;;;;1628.43;999.90;;;29.60;99.90;;;;;;5035259;28;20109;-69
2023/10/13 16:45:31;;;;;;;;;;;29.60;99.90;;;;;;5035851;28;20048;-70
2023/10/13 16:47:57;;;;;;;1566.13;999.90;;;29.60;99.90;;;;;;5033904;28;19940;-69